map of GUA home
GUA - Airport
Location
City:  Guatemala City, Guatemala, Guatemala
Name:La Aurora International Airport
ICAO:MGGT
IATA:GUA

Details
Type:Airport (Aerodrome, Airfield)
Use:Public/Civil, Military, International (customs port of entry)
Latitude:1435'00"N (14.583272)
Longitude:9031'39"W (-90.527474)
Datum:WGS 1984
Elevation:4952 ft (1509 m)
Variation:0.95E (WMM2015 magnetic declination)
-0.14 annual change
Runways:1
Longest:9800 × 196 ft (2987 × 59.5 m), paved

Time
Time Zone:UTC-6
Local Time:

Weather
METAR:MGGT 230800Z 34008KT 9999 BKN014 17/15 Q1025 A3027
TAF:MGGT 221130Z 2212/2312 36008KT 9999 BKN016 TX26/2220Z TN15/2212Z
BECMG 2215/2217 36014KT SCT018
BECMG 2301/2303 36010KT FEW016
BECMG 2308/2310 BKN014= TAF MGPB 221130Z 2212/2312 00000KT 9999 SCT016 TX30/2220Z TN20/2212Z
BECMG 2215/2217 05008KT SCT018
TEMPO 2220/2224 VCTSRA SCT020TCU FEW025CB
BECMG 2300/2302 00000KT FEW016
BECMG 2307/2309 SCT016

Related Locations
Nearby:
Farthest:CCK: 11925 mi / 19192 km
West Island (Pulau Panjang) [Cocos (Keeling) Islands], CC

Find:

   beyond  
but within

Other Information
Maps:
NOTAMs:
Links:
Sources:

  
  • flag of Guatemala
  • flag of Guatemala
  

Sectional Chart

Flight Planning
at skyvector.com

Satellite Image

Google Maps Satellite view

 

Copyright © 2004-2018 Karl L. Swartz. All rights reserved.
The Great Circle Mapper name and logo are trademarks of the Great Circle Mapper.
All other trademarks mentioned herein belong to their respective owners.
Please see credits for attibutions and further copyright information.

  Follow gcmap on Facebook Follow gcmap on Twitter Follow gcmap on Google+ GCmap on LinkedIn

hCard Microformat

Geo Microformat